Last 7 Days

Pierce College

10 Minute Data | America/Los_Angeles
as of 5/7/21 12:27 PM PDT
Date & Time Temp Max (°F) Temp Min (°F) RH (%) Dew Pt (°F) Latest Rain (In) Seasonal Rainfall (In) Soil Temp (°F) Soil Moist (%) Pressure (mb) (mb) Wind Spd (mph) Wind Dir (°) Wind Gust (mph) Wind Gst Dir (°) Leaf Wet Raw (mV) Net Radiation (W/m²) Evap Pan Wind Spd (mph) Evap Pan WindRun (miles) Evap Pan H2O Temp (°F) Evap Pan Level (In)
5/7/21 - 1120 72.2 70.0 48 50.6 0.00 5.39 74.6 30.2 1,017.0 2.1 NNE | 29 4.2 NNE | 17 266 598 0.9 8.7 116.3 3.7
5/7/21 - 1110 70.4 69.6 50 50.4 0.00 5.39 74.5 30.2 1,017.1 2.1 NNE | 22 4.4 NNE | 24 266 596 1.2 8.5 115.5 3.7
5/7/21 - 1100 69.9 68.6 51 50.2 0.00 5.39 74.6 30.2 1,017.2 1.9 NE | 47 3.9 N | 0 266 591 1.1 8.3 114.5 3.7
5/7/21 - 1050 69.4 66.8 53 50.2 0.00 5.39 74.6 30.2 1,017.3 1.7 NNE | 20 4.1 ESE | 103 266 592 1.5 8.2 111.6 3.7
5/7/21 - 1040 68.5 67.4 53 50.1 0.00 5.39 74.6 30.2 1,017.3 2.9 SE | 127 5.8 E | 84 266 592 1.7 7.9 107.9 3.7
5/7/21 - 1030 68.5 67.2 53 50.0 0.00 5.39 74.6 30.2 1,017.3 1.8 NNW | 335 6.6 E | 97 266 564 1.5 7.6 101.6 3.7
5/7/21 - 1020 68.2 66.7 54 49.8 0.00 5.39 74.7 30.3 1,017.4 1.3 NNW | 348 3.4 E | 82 266 557 1.2 7.4 99.2 3.7
5/7/21 - 1010 67.4 66.3 54 50.0 0.00 5.39 74.6 30.3 1,017.5 1.8 NNE | 27 4.3 N | 7 266 592 0.9 7.2 94.5 3.7
5/7/21 - 1000 66.3 64.8 57 49.9 0.00 5.39 74.6 30.3 1,017.4 1.2 NNE | 19 4.7 NNE | 23 266 387 0.3 7.0 89.7 3.7
5/7/21 - 0950 64.8 63.3 60 49.6 0.00 5.39 74.6 30.3 1,017.5 3.0 ESE | 116 6.8 SE | 125 267 411 1.6 7.0 84.9 3.7
5/7/21 - 0940 64.3 62.6 61 49.6 0.00 5.39 74.6 30.3 1,017.5 1.7 SE | 129 4.6 SE | 144 268 222 0.9 6.7 84.1 3.7
5/7/21 - 0930 63.9 62.9 60 49.5 0.00 5.39 74.7 30.3 1,017.5 2.9 ESE | 116 6.4 S | 191 268 285 1.4 6.6 83.7 3.7
5/7/21 - 0920 63.9 63.2 60 49.4 0.00 5.39 74.8 30.4 1,017.4 2.3 SE | 130 6.3 ESE | 123 268 260 1.3 6.3 81.5 3.7
5/7/21 - 0910 63.8 62.5 61 49.5 0.00 5.39 74.8 30.4 1,017.5 1.7 SE | 129 5.2 S | 178 268 264 0.9 6.1 78.7 3.7
5/7/21 - 0900 62.7 61.8 63 49.4 0.00 5.39 74.8 30.4 1,017.5 1.5 NNE | 33 3.8 ENE | 57 268 207 0.7 6.0 76.3 3.7
5/7/21 - 0850 62.1 61.8 64 49.5 0.00 5.39 74.8 30.4 1,017.6 2.3 E | 97 5.7 NE | 55 268 198 1.2 5.8 75.2 3.7
5/7/21 - 0840 62.6 61.8 63 49.5 0.00 5.39 74.9 30.4 1,017.6 2.5 E | 82 6.5 E | 96 268 214 1.1 5.6 73.8 3.7
5/7/21 - 0830 62.2 61.6 64 49.4 0.00 5.39 74.9 30.4 1,017.7 1.5 ENE | 65 3.0 ENE | 57 268 149 0.6 5.5 72.5 3.7
5/7/21 - 0820 62.3 61.6 64 49.8 0.00 5.39 74.9 30.4 1,017.7 1.5 NNE | 32 3.2 N | 0 269 130 0.2 5.4 72.2 3.7
5/7/21 - 0810 61.7 61.3 65 49.8 0.00 5.39 75.0 30.4 1,017.7 1.2 NE | 35 2.9 N | 354 269 112 0.3 5.3 71.2 3.7
5/7/21 - 0800 61.7 61.2 66 49.8 0.00 5.39 75.0 30.4 1,017.6 1.3 NE | 40 2.6 NE | 35 269 119 0.5 5.3 71.1 3.7
5/7/21 - 0750 61.3 60.8 66 49.7 0.00 5.39 75.1 30.5 1,017.6 0.6 SSW | 199 2.6 SW | 214 269 117 0.6 5.2 70.4 3.7
5/7/21 - 0740 61.0 59.9 68 49.8 0.00 5.39 75.1 30.5 1,017.5 0.7 SSW | 206 3.4 SSW | 211 269 100 0.7 5.1 69.5 3.7
5/7/21 - 0730 60.1 59.4 69 49.6 0.00 5.39 75.2 30.4 1,017.4 1.7 SE | 134 3.7 SE | 144 270 102 0.9 5.0 69.0 3.7
5/7/21 - 0720 60.0 59.4 69 49.5 0.00 5.39 75.2 30.5 1,017.4 1.4 SSE | 152 4.4 SE | 128 270 100 0.5 4.8 69.2 3.7
5/7/21 - 0710 59.6 59.2 70 49.6 0.00 5.39 75.3 30.5 1,017.4 1.1 SW | 222 3.2 SSW | 202 270 101 0.9 4.7 67.8 3.7
5/7/21 - 0700 59.3 58.3 71 49.5 0.00 5.39 75.4 30.5 1,017.4 0.1 SE | 144 0.9 SSE | 167 270 94 0.2 4.6 66.0 3.7
5/7/21 - 0650 58.5 57.8 72 49.3 0.00 5.39 75.3 30.5 1,017.5 1.2 SSE | 158 3.4 SE | 136 270 71 0.7 4.6 64.5 3.7
5/7/21 - 0640 58.0 57.6 73 49.3 0.00 5.39 75.4 30.5 1,017.4 1.3 SSE | 166 2.5 SE | 124 271 64 0.8 4.5 63.0 3.7
5/7/21 - 0630 57.8 56.9 74 49.3 0.00 5.39 75.5 30.5 1,017.4 0.9 SSE | 168 2.4 SSE | 153 271 49 0.5 4.3 61.5 3.7
5/7/21 - 0620 57.2 56.8 75 49.3 0.00 5.39 75.5 30.5 1,017.4 1.8 S | 191 3.0 SW | 235 271 30 1.0 4.2 60.2 3.7
5/7/21 - 0610 57.1 56.5 76 49.5 0.00 5.39 75.5 30.5 1,017.5 1.5 SW | 219 2.8 SW | 220 271 11 0.7 4.1 59.5 3.7
5/7/21 - 0600 56.7 56.4 78 49.6 0.00 5.39 75.6 30.5 1,017.4 1.9 SSW | 192 3.4 SSW | 208 271 2 1.2 4.0 59.1 3.7
5/7/21 - 0550 56.6 56.3 78 49.7 0.00 5.39 75.6 30.5 1,017.4 2.5 SW | 215 4.2 SW | 226 271 -3 1.6 3.8 58.8 3.7
5/7/21 - 0540 56.6 56.1 79 49.8 0.00 5.39 75.6 30.5 1,017.5 2.5 SW | 220 5.1 SW | 218 272 -7 1.6 3.5 58.7 3.7
5/7/21 - 0530 56.5 56.1 79 49.8 0.00 5.39 75.7 30.5 1,017.2 2.8 SW | 228 5.9 SW | 229 272 -8 1.9 3.2 58.6 3.7
5/7/21 - 0520 56.4 56.1 80 50.1 0.00 5.39 75.7 30.5 1,016.6 1.9 SE | 137 4.7 ESE | 122 272 -9 0.8 2.9 58.5 3.7
5/7/21 - 0510 56.6 56.3 80 50.3 0.00 5.39 75.8 30.5 1,016.6 1.8 ESE | 103 4.5 SE | 125 272 -11 0.6 2.8 58.5 3.7
5/7/21 - 0500 56.6 56.3 80 50.4 0.00 5.39 75.8 30.5 1,016.7 1.7 ESE | 102 3.7 E | 84 272 -12 0.7 2.7 58.4 3.7
5/7/21 - 0450 56.6 56.3 80 50.3 0.00 5.39 75.8 30.5 1,016.8 0.7 ESE | 123 2.1 E | 82 272 -13 0.2 2.6 58.4 3.7
5/7/21 - 0440 56.8 56.4 80 50.4 0.00 5.39 75.9 30.5 1,016.8 0.7 ESE | 109 2.9 ENE | 57 272 -13 0.2 2.5 58.4 3.7
5/7/21 - 0430 56.7 56.4 80 50.4 0.00 5.39 75.9 30.5 1,016.7 0.5 E | 83 1.9 ENE | 73 272 -13 0.1 2.5 58.4 3.7
5/7/21 - 0420 56.6 56.0 80 50.4 0.00 5.39 76.0 30.5 1,016.7 0.8 NE | 46 1.8 NNE | 25 272 -13 0.0 2.5 58.4 3.7
5/7/21 - 0410 56.3 56.0 80 50.2 0.00 5.39 75.9 30.5 1,016.6 1.4 ESE | 105 3.2 SE | 137 272 -13 0.4 2.5 58.4 3.7
5/7/21 - 0400 56.3 56.0 80 50.2 0.00 5.39 76.0 30.6 1,016.6 1.1 ESE | 118 3.5 SE | 141 272 -13 0.3 2.4 58.3 3.7
5/7/21 - 0350 56.6 56.1 80 50.3 0.00 5.39 76.0 30.5 1,016.6 1.6 E | 79 3.7 ENE | 64 272 -13 0.4 2.4 58.3 3.7
5/7/21 - 0340 56.4 56.0 81 50.4 0.00 5.39 76.0 30.5 1,016.7 0.7 ENE | 61 2.4 NE | 41 272 -13 0.1 2.3 58.3 3.7
5/7/21 - 0330 56.4 56.1 81 50.5 0.00 5.39 76.0 30.6 1,016.9 1.2 ENE | 60 3.6 NE | 38 272 -13 0.1 2.3 58.3 3.7
5/7/21 - 0320 56.4 56.0 82 50.6 0.00 5.39 76.0 30.6 1,016.9 1.1 NE | 38 2.7 NE | 36 272 -13 0.1 2.2 58.2 3.7
5/7/21 - 0310 56.2 55.9 82 50.6 0.00 5.39 76.0 30.6 1,016.9 1.5 ENE | 78 3.6 ESE | 108 272 -13 0.5 2.2 58.1 3.7
5/7/21 - 0300 56.1 55.6 82 50.4 0.00 5.39 76.0 30.6 1,017.0 0.9 ESE | 113 2.7 SE | 125 272 -13 0.3 2.2 58.0 3.7
5/7/21 - 0250 55.8 55.6 82 50.3 0.00 5.39 76.0 30.6 1,017.0 0.5 SSE | 149 2.0 SE | 135 272 -13 0.0 2.1 57.9 3.7
5/7/21 - 0240 55.8 55.5 82 50.3 0.00 5.39 76.0 30.6 1,016.9 0.9 SE | 128 2.9 ESE | 102 272 -13 0.4 2.1 58.0 3.7
5/7/21 - 0230 55.8 55.5 82 50.4 0.00 5.39 76.0 30.6 1,016.9 2.1 SSE | 150 5.0 SE | 134 272 -13 1.1 2.0 58.0 3.7
5/7/21 - 0220 55.8 55.5 83 50.4 0.00 5.39 76.0 30.6 1,016.9 1.4 SE | 133 3.0 SE | 141 272 -13 0.3 1.8 58.0 3.7
5/7/21 - 0210 55.8 55.5 83 50.4 0.00 5.39 76.0 30.6 1,016.9 1.8 SSE | 150 4.1 SE | 136 272 -13 0.8 1.8 57.9 3.7
5/7/21 - 0200 55.8 55.5 82 50.4 0.00 5.39 76.1 30.6 1,017.0 1.0 SSE | 168 2.6 S | 177 272 -13 0.5 1.7 57.9 3.7
5/7/21 - 0150 55.8 55.3 83 50.4 0.00 5.39 76.1 30.6 1,017.0 1.0 SSE | 162 3.3 S | 185 272 -13 0.6 1.6 57.8 3.7
5/7/21 - 0140 55.6 55.1 83 50.4 0.00 5.39 76.2 30.6 1,017.0 1.8 S | 174 3.3 SSE | 155 272 -13 0.8 1.5 57.8 3.7
5/7/21 - 0130 55.3 55.1 83 50.2 0.00 5.39 76.2 30.6 1,017.1 2.3 S | 185 4.1 SSW | 202 272 -13 1.4 1.3 57.8 3.7
5/7/21 - 0120 55.5 55.2 83 50.4 0.00 5.39 76.2 30.6 1,017.1 2.1 S | 172 3.9 S | 179 272 -13 1.3 1.1 57.9 3.7
5/7/21 - 0110 55.7 55.2 83 50.4 0.00 5.39 76.2 30.7 1,017.2 2.1 SSW | 193 4.0 SSW | 212 272 -13 1.3 0.9 58.0 3.7
5/7/21 - 0100 55.7 55.5 83 50.6 0.00 5.39 76.2 30.6 1,017.4 1.5 S | 183 3.0 S | 191 272 -14 1.0 0.7 58.0 3.7
5/7/21 - 0050 55.9 55.5 83 50.7 0.00 5.39 76.0 30.6 1,017.5 2.2 S | 182 3.7 SSW | 199 272 -14 1.3 0.5 58.0 3.7
5/7/21 - 0040 56.0 55.6 83 50.8 0.00 5.39 76.0 30.6 1,017.5 1.1 SSE | 164 2.5 SSE | 147 272 -14 0.4 0.3 58.0 3.7
5/7/21 - 0030 56.1 55.6 84 51.0 0.00 5.39 76.2 30.7 1,017.5 0.6 SSE | 166 3.6 SSE | 147 272 -13 0.3 0.2 58.0 3.7
5/7/21 - 0020 56.0 55.6 84 50.9 0.00 5.39 76.2 30.7 1,017.6 1.4 SE | 146 3.9 ESE | 119 272 -13 0.5 0.2 58.1 3.7
5/7/21 - 0010 56.0 55.6 84 51.0 0.00 5.39 76.2 30.7 1,017.7 1.6 ESE | 117 4.0 SE | 142 272 -13 0.6 0.1 58.1 3.7
5/7/21 - 0000 55.9 55.6 84 50.9 0.00 5.39 76.4 30.6 1,017.7 1.2 SSW | 213 2.8 ENE | 60 272 -13 0.6 15.6 58.1 3.7
5/6/21 - 2350 56.0 55.6 84 50.9 0.00 5.39 76.6 30.6 1,017.8 1.1 ESE | 112 2.6 SE | 130 272 -13 0.5 15.4 58.6 3.7
5/6/21 - 2340 56.1 55.7 83 50.9 0.00 5.39 76.7 30.7 1,017.8 1.7 ESE | 116 3.8 ENE | 75 272 -14 0.7 15.4 58.6 3.7
5/6/21 - 2330 56.3 55.9 83 51.0 0.00 5.39 76.8 30.7 1,017.9 0.9 ENE | 73 2.5 NE | 44 272 -14 0.2 15.2 58.8 3.7
5/6/21 - 2320 56.2 56.0 83 51.0 0.00 5.39 76.7 30.7 1,017.9 1.7 E | 79 4.6 ENE | 59 272 -14 0.5 15.2 58.8 3.7
5/6/21 - 2310 56.7 56.1 82 51.0 0.00 5.39 76.8 30.7 1,018.0 2.0 E | 82 3.6 E | 97 272 -14 0.8 15.1 58.8 3.7
5/6/21 - 2300 56.8 56.3 82 51.1 0.00 5.39 76.8 30.7 1,018.0 1.3 ENE | 67 2.9 NE | 37 272 -14 0.3 15.0 58.7 3.7
5/6/21 - 2250 56.7 56.3 81 50.8 0.00 5.39 77.0 30.7 1,018.1 1.7 E | 97 4.1 ENE | 72 272 -13 0.8 15.0 58.4 3.7
5/6/21 - 2240 56.6 56.1 80 50.2 0.00 5.39 77.0 30.7 1,018.1 1.0 E | 95 2.4 ENE | 71 272 -13 0.4 14.8 57.8 3.7
5/6/21 - 2230 56.3 55.9 80 50.1 0.00 5.39 77.0 30.7 1,018.2 1.0 ESE | 104 2.0 SE | 139 271 -14 0.3 14.8 56.8 3.7
5/6/21 - 2220 56.1 55.7 81 50.3 0.00 5.39 77.0 30.7 1,018.2 1.2 SSW | 194 2.0 SSW | 201 271 -14 0.6 14.7 55.4 3.7
5/6/21 - 2210 55.8 55.1 82 50.2 0.00 5.39 77.0 30.7 1,018.2 0.3 ESE | 108 1.4 E | 86 272 -13 0.0 14.6 53.1 3.7
5/6/21 - 2200 55.2 55.0 83 49.9 0.00 5.39 77.0 30.7 1,018.2 0.0 N | 0 0.0 ESE | 105 272 -18 0.0 14.6 50.9 3.7
5/6/21 - 2150 55.2 54.7 82 49.7 0.00 5.39 77.0 30.7 1,018.3 0.3 ESE | 102 1.3 ENE | 67 272 -46 0.0 14.6 49.4 3.7
5/6/21 - 2140 55.1 54.7 82 49.4 0.00 5.39 77.0 30.8 1,018.3 0.6 ESE | 108 1.9 E | 80 264 -63 0.0 14.6 49.1 3.7
5/6/21 - 2130 55.4 55.0 82 49.8 0.00 5.39 76.9 30.7 1,018.3 0.2 SSE | 166 1.3 SSE | 150 258 -63 0.1 14.6 49.4 3.7
5/6/21 - 2120 55.6 55.1 82 49.8 0.00 5.39 76.3 30.7 1,018.3 0.0 N | 0 0.0 S | 184 261 -65 0.0 14.6 49.7 3.7
5/6/21 - 2110 55.8 55.5 82 50.0 0.00 5.39 76.3 30.7 1,018.3 0.1 S | 191 1.1 SSW | 204 262 -66 0.0 14.6 51.1 3.7
5/6/21 - 2100 55.8 55.5 81 50.0 0.00 5.39 76.4 30.7 1,018.3 1.4 S | 191 2.8 S | 173 268 -69 0.6 14.6 52.0 3.7
5/6/21 - 2050 55.9 55.5 81 50.0 0.00 5.39 76.4 30.7 1,018.3 1.9 S | 189 2.9 SSW | 195 266 -70 1.1 14.5 52.4 3.7
5/6/21 - 2040 56.1 55.8 80 50.0 0.00 5.39 76.3 30.8 1,018.2 1.8 SSW | 192 3.3 S | 185 269 -70 0.8 14.3 52.8 3.7
5/6/21 - 2030 56.3 56.0 80 50.0 0.00 5.39 76.3 30.8 1,018.2 1.5 S | 176 3.5 S | 184 267 -71 0.7 14.2 53.4 3.7
5/6/21 - 2020 56.6 56.0 79 49.9 0.00 5.39 76.3 30.8 1,018.2 2.2 S | 188 3.2 S | 191 268 -71 1.4 14.1 53.8 3.7
5/6/21 - 2010 56.9 56.4 78 49.8 0.00 5.39 76.3 30.8 1,018.1 1.0 SSE | 163 3.1 S | 172 269 -73 0.5 13.8 54.3 3.7
5/6/21 - 2000 57.0 56.6 78 49.9 0.00 5.39 76.3 30.8 1,017.9 1.8 SSE | 154 3.8 ESE | 119 269 -73 0.6 13.7 54.7 3.7
5/6/21 - 1950 57.6 57.0 76 49.7 0.00 5.39 76.3 30.8 1,017.9 1.3 SSE | 164 3.3 SSE | 152 269 -74 0.8 13.6 55.3 3.7
5/6/21 - 1940 58.4 57.5 74 49.8 0.00 5.39 76.2 30.8 1,017.6 1.8 S | 170 3.9 SSE | 147 269 -75 0.8 13.5 56.1 3.7
5/6/21 - 1930 59.3 58.3 73 50.0 0.00 5.39 76.2 30.8 1,017.5 1.6 SW | 217 3.0 S | 182 269 -76 1.1 13.4 56.8 3.7
5/6/21 - 1920 60.0 59.1 72 50.7 0.00 5.39 76.3 30.8 1,017.3 0.3 E | 81 1.3 S | 174 269 -77 0.3 13.2 57.8 3.7
5/6/21 - 1910 60.3 59.8 71 50.8 0.00 5.39 76.3 30.8 1,017.2 0.8 NE | 38 2.5 NE | 55 269 -78 0.2 13.2 58.6 3.7
5/6/21 - 1900 61.0 60.3 70 50.8 0.00 5.39 76.2 30.7 1,017.0 0.5 NE | 52 1.8 NE | 47 269 -79 0.1 13.1 59.9 3.7
5/6/21 - 1850 61.5 60.9 69 51.0 0.00 5.39 76.2 30.7 1,016.9 1.0 NE | 49 2.2 ENE | 60 269 -79 0.3 13.1 61.3 3.7
5/6/21 - 1840 62.5 61.3 68 51.0 0.00 5.39 76.2 30.8 1,016.7 1.5 NE | 34 4.1 NE | 54 268 -76 0.6 13.0 62.7 3.7
5/6/21 - 1830 63.2 62.3 66 51.1 0.00 5.39 76.1 30.7 1,016.6 1.6 NNE | 16 4.0 N | 7 268 -73 0.4 13.0 64.4 3.8
5/6/21 - 1820 63.9 63.1 64 51.3 0.00 5.39 76.0 30.7 1,016.4 1.9 NNE | 25 4.3 ENE | 58 268 -67 0.4 12.9 66.4 3.8
5/6/21 - 1810 66.3 63.8 61 51.4 0.00 5.39 76.0 30.7 1,016.4 2.4 NNE | 28 4.8 NE | 52 268 -51 0.5 12.8 68.4 3.8
5/6/21 - 1800 67.4 66.0 59 51.7 0.00 5.39 76.0 30.7 1,016.3 1.9 NNE | 32 3.9 NNE | 31 267 -35 0.4 12.7 70.1 3.8
5/6/21 - 1750 68.2 67.2 57 51.8 0.00 5.39 75.9 30.7 1,016.2 1.9 NE | 48 3.4 NE | 46 267 -15 0.5 12.7 71.8 3.8
5/6/21 - 1740 69.4 68.1 55 52.0 0.00 5.39 75.9 30.7 1,016.1 2.4 NE | 40 4.8 NE | 37 267 10 0.6 12.6 73.5 3.8
5/6/21 - 1730 70.5 69.4 53 52.3 0.00 5.39 75.8 30.7 1,016.1 2.6 NE | 38 4.5 N | 0 266 34 0.6 12.5 75.1 3.8
5/6/21 - 1720 72.6 70.4 51 52.6 0.00 5.39 75.7 30.7 1,016.0 2.8 NE | 38 6.1 ENE | 58 266 59 1.0 12.4 76.8 3.8
5/6/21 - 1710 73.5 72.4 49 52.7 0.00 5.39 75.7 30.7 1,016.0 2.3 NNE | 30 4.5 NE | 53 266 87 0.7 12.2 78.1 3.8
5/6/21 - 1700 73.8 73.2 46 51.3 0.00 5.39 75.6 30.7 1,016.0 2.3 ESE | 110 5.4 SE | 142 266 117 1.0 12.1 79.6 3.8
5/6/21 - 1650 75.1 73.8 44 51.1 0.00 5.39 75.6 30.7 1,015.8 3.7 S | 177 7.1 SW | 216 266 146 2.5 11.9 81.1 3.8
5/6/21 - 1640 75.9 75.1 42 51.0 0.00 5.39 75.4 30.6 1,015.7 3.0 S | 179 5.1 SSW | 213 266 170 2.2 11.5 81.8 3.8
5/6/21 - 1630 75.4 74.8 43 51.1 0.00 5.39 75.4 30.6 1,015.6 3.5 S | 177 7.1 SSW | 207 266 195 2.5 11.2 82.8 3.8
5/6/21 - 1620 75.7 74.8 43 51.5 0.00 5.39 75.3 30.6 1,015.6 3.3 SSE | 159 7.5 SSW | 192 266 220 2.0 10.7 83.6 3.8
5/6/21 - 1610 76.0 75.0 43 51.8 0.00 5.39 75.2 30.6 1,015.5 3.8 SSE | 166 9.4 SSE | 155 266 244 2.2 10.4 84.5 3.8
5/6/21 - 1600 78.1 75.7 42 52.1 0.00 5.39 75.2 30.6 1,015.6 3.6 SSE | 152 6.7 SE | 140 266 268 1.8 10.0 86.1 3.8
5/6/21 - 1550 78.7 77.5 40 52.0 0.00 5.39 75.1 30.5 1,015.4 3.8 SSE | 159 6.8 ESE | 114 266 292 2.4 9.7 87.5 3.8
5/6/21 - 1540 80.6 78.4 39 52.4 0.00 5.39 75.0 30.5 1,015.3 3.7 S | 182 7.3 SW | 232 266 314 2.6 9.3 88.8 3.8
5/6/21 - 1530 81.5 79.6 38 52.5 0.00 5.39 74.9 30.5 1,015.3 3.0 SSW | 196 9.6 SW | 218 265 337 2.0 8.9 89.1 3.8
5/6/21 - 1520 81.6 80.6 36 52.1 0.00 5.39 74.8 30.5 1,015.2 1.9 ESE | 106 4.1 SSW | 196 265 360 1.5 8.6 89.7 3.8
5/6/21 - 1510 81.2 79.8 37 52.1 0.00 5.39 74.8 30.5 1,015.2 3.4 SE | 127 6.4 SE | 137 266 382 1.8 8.3 91.6 3.8
5/6/21 - 1500 80.6 79.9 38 52.1 0.00 5.39 74.6 30.5 1,015.2 3.6 SSE | 158 7.0 SE | 136 266 403 1.9 8.0 93.1 3.8
5/6/21 - 1450 81.6 80.3 37 52.1 0.00 5.39 74.6 30.5 1,015.2 3.7 S | 169 7.0 ESE | 112 266 421 2.5 7.7 94.3 3.8
5/6/21 - 1440 82.5 80.2 36 52.0 0.00 5.39 74.6 30.5 1,015.3 3.4 S | 174 7.1 S | 173 265 441 1.9 7.3 94.8 3.8
5/6/21 - 1430 82.8 82.1 36 53.1 0.00 5.39 74.5 30.5 1,015.3 2.7 SE | 139 5.8 SSW | 211 265 456 1.4 7.0 94.4 3.8
5/6/21 - 1420 83.1 82.3 37 54.1 0.00 5.39 74.5 30.5 1,015.4 3.1 NE | 56 4.9 ESE | 112 265 467 1.2 6.7 95.1 3.8
5/6/21 - 1410 82.9 81.7 38 53.9 0.00 5.39 74.7 30.5 1,015.6 3.0 NE | 51 6.0 NE | 49 266 478 1.1 6.5 95.9 3.8
5/6/21 - 1400 83.0 82.3 37 53.8 0.00 5.39 74.7 30.5 1,015.6 3.2 NE | 55 6.5 SE | 140 266 497 1.4 6.3 97.2 3.8
5/6/21 - 1350 83.2 82.3 37 53.7 0.00 5.39 74.5 30.5 1,015.7 2.6 ENE | 68 6.9 ENE | 73 265 512 1.3 6.1 98.6 3.8
5/6/21 - 1340 83.1 82.3 37 53.6 0.00 5.39 74.5 30.5 1,015.8 3.2 ENE | 61 6.1 ENE | 73 265 526 1.2 5.9 100.4 3.8
5/6/21 - 1330 84.2 82.8 35 53.0 0.00 5.39 74.5 30.4 1,015.8 3.0 NE | 54 6.4 ENE | 68 265 533 1.4 5.7 102.2 3.8
5/6/21 - 1320 83.7 83.1 34 52.6 0.00 5.39 74.4 30.4 1,015.9 2.7 NE | 48 4.6 ENE | 62 265 541 0.9 5.5 103.0 3.8
5/6/21 - 1310 83.4 82.1 36 52.8 0.00 5.39 74.4 30.4 1,015.9 2.6 E | 80 5.9 ESE | 108 265 555 1.6 5.3 106.0 3.8
5/6/21 - 1300 83.6 82.3 33 50.6 0.00 5.39 74.3 30.4 1,016.0 2.2 ESE | 115 6.9 SE | 135 264 563 1.5 5.0 110.3 3.8
5/6/21 - 1250 83.1 82.4 33 50.4 0.00 5.39 74.3 30.4 1,016.1 2.7 ENE | 57 5.2 ENE | 59 264 571 1.2 4.8 113.2 3.8
5/6/21 - 1240 83.7 82.0 33 50.7 0.00 5.39 74.2 30.4 1,016.2 2.0 ENE | 57 6.2 NNE | 18 264 578 1.3 4.6 115.7 3.8
5/6/21 - 1230 82.0 80.6 34 50.0 0.00 5.39 74.2 30.3 1,016.3 1.2 NE | 52 3.1 NE | 50 264 586 1.0 4.4 115.9 3.8
5/6/21 - 1220 80.9 80.3 35 50.2 0.00 5.39 74.2 30.4 1,016.5 2.3 NNE | 23 4.8 NNE | 28 264 578 1.1 4.2 117.9 3.8
5/6/21 - 1210 81.5 79.4 35 50.5 0.00 5.39 74.1 30.3 1,016.7 1.5 NNW | 348 3.5 N | 0 264 592 0.9 4.0 120.2 3.7
5/6/21 - 1200 80.1 78.8 37 50.7 0.00 5.39 74.1 30.3 1,016.8 1.7 NNE | 19 4.3 WSW | 241 264 597 1.4 3.9 121.1 3.7
5/6/21 - 1150 79.6 78.0 38 50.8 0.00 5.39 74.0 30.3 1,017.0 1.8 N | 9 4.7 NNE | 17 264 595 0.6 3.6 122.2 3.8
5/6/21 - 1140 81.0 78.7 37 51.1 0.00 5.39 74.0 30.3 1,017.1 1.6 N | 4 4.5 NNE | 16 264 597 0.9 3.5 123.4 3.8
5/6/21 - 1130 79.2 77.6 38 50.8 0.00 5.39 74.0 30.3 1,017.2 1.6 NNE | 30 4.5 NE | 35 264 596 0.9 3.4 122.5 3.7
5/6/21 - 1120 78.1 75.6 40 50.2 0.00 5.39 74.0 30.3 1,017.3 1.4 NNE | 14 3.4 ENE | 78 264 594 0.8 3.2 121.3 3.7
5/6/21 - 1110 76.4 74.6 42 51.1 0.00 5.39 74.0 30.3 1,017.5 1.5 NNE | 12 3.4 N | 8 265 590 1.2 3.1 120.1 3.8
5/6/21 - 1100 74.8 73.6 45 51.3 0.00 5.39 74.0 30.3 1,017.6 1.8 NE | 48 3.3 E | 87 265 592 1.1 2.9 117.0 3.8
5/6/21 - 1050 74.3 73.7 46 52.3 0.00 5.39 74.0 30.4 1,017.8 1.8 NE | 34 3.8 ENE | 72 266 583 1.2 2.7 116.8 3.8
5/6/21 - 1040 74.4 71.1 50 52.9 0.00 5.39 74.0 30.3 1,017.9 0.9 E | 94 2.4 E | 85 266 572 0.9 2.5 112.6 3.8
5/6/21 - 1030 70.9 69.9 53 52.5 0.00 5.39 74.0 30.4 1,017.9 1.1 WNW | 291 3.6 W | 275 266 562 1.2 2.4 106.0 3.8
5/6/21 - 1020 70.4 69.6 54 52.7 0.00 5.39 74.0 30.4 1,018.0 1.1 NNW | 335 2.5 N | 0 266 554 0.7 2.2 103.5 3.8
5/6/21 - 1010 70.5 69.0 55 52.9 0.00 5.39 74.1 30.4 1,018.0 1.2 NNE | 24 4.0 NE | 36 266 548 0.3 2.1 99.9 3.8
5/6/21 - 1000 69.1 68.3 57 53.0 0.00 5.39 74.1 30.4 1,018.1 1.2 N | 11 4.3 N | 9 266 543 1.0 2.0 97.0 3.8
5/6/21 - 0950 68.3 66.8 60 53.0 0.00 5.39 74.1 30.4 1,018.2 1.2 NNE | 20 3.7 NE | 53 266 522 0.8 1.9 96.3 3.8
5/6/21 - 0940 67.4 65.5 62 53.0 0.00 5.39 74.1 30.4 1,018.3 1.4 N | 353 5.0 N | 352 266 473 0.8 1.7 95.8 3.8
5/6/21 - 0930 65.8 64.8 64 52.9 0.00 5.39 74.1 30.5 1,018.3 1.5 N | 10 4.7 NNE | 14 267 495 0.7 1.6 94.7 3.8
5/6/21 - 0920 64.9 62.9 67 52.7 0.00 5.39 74.2 30.5 1,018.4 2.2 WNW | 294 4.3 ESE | 104 267 464 1.7 1.5 92.1 3.7
5/6/21 - 0910 64.9 63.4 67 52.9 0.00 5.39 74.3 30.5 1,018.4 1.0 NNE | 22 5.0 ESE | 106 266 459 0.6 1.2 88.3 3.7
5/6/21 - 0900 63.9 62.1 69 52.9 0.00 5.39 74.2 30.5 1,018.4 1.3 NNE | 31 2.5 NE | 45 267 434 0.5 1.1 82.0 3.7
5/6/21 - 0850 62.1 60.6 74 52.6 0.00 5.39 74.3 30.5 1,018.5 1.2 NNW | 343 3.2 NNE | 31 269 308 1.1 1.0 76.3 3.7
5/6/21 - 0840 60.8 59.8 76 52.7 0.00 5.39 74.4 30.5 1,018.5 1.7 NNE | 15 3.9 N | 0 270 241 0.3 0.8 73.3 3.7
5/6/21 - 0830 60.1 59.2 78 52.8 0.00 5.39 74.4 30.5 1,018.5 1.1 NNE | 17 3.1 NNE | 23 271 190 0.4 0.8 70.9 3.7
5/6/21 - 0820 59.3 58.4 80 52.7 0.00 5.39 74.3 30.5 1,018.4 1.2 N | 11 3.3 NE | 45 271 158 0.2 0.7 68.6 3.7
5/6/21 - 0810 58.5 57.9 82 52.6 0.00 5.39 74.2 30.6 1,018.4 1.3 NE | 53 3.2 NE | 55 270 128 0.2 0.7 66.6 3.7
5/6/21 - 0800 58.0 57.3 83 52.6 0.00 5.39 74.3 30.6 1,018.4 1.3 ENE | 78 3.4 E | 94 277 110 0.4 0.6 65.3 3.7
5/6/21 - 0750 57.6 57.1 84 52.5 0.00 5.39 74.4 30.6 1,018.3 1.6 E | 93 4.1 ENE | 58 290 100 0.5 0.6 64.6 3.7
5/6/21 - 0740 57.3 56.9 84 52.4 0.00 5.39 74.3 30.6 1,018.3 1.5 ENE | 67 3.6 E | 90 301 91 0.3 0.5 63.5 3.7
5/6/21 - 0730 57.4 56.9 85 52.6 0.00 5.39 74.5 30.6 1,018.3 1.2 ENE | 58 3.2 NE | 34 310 72 0.2 0.4 62.9 3.7
5/6/21 - 0720 57.2 56.6 86 52.8 0.00 5.39 75.1 30.6 1,018.3 0.9 E | 85 2.4 N | 2 316 62 0.2 0.4 62.8 3.7
5/6/21 - 0710 56.8 56.3 87 52.6 0.00 5.39 75.0 30.6 1,018.2 0.8 E | 99 2.0 SSE | 157 323 58 0.3 0.4 62.5 3.7
5/6/21 - 0700 56.6 56.1 88 52.8 0.00 5.39 75.1 30.6 1,018.2 1.2 NE | 41 2.6 NNE | 31 328 57 0.2 0.3 62.0 3.7
5/6/21 - 0650 56.4 55.9 89 52.8 0.00 5.39 75.2 30.6 1,018.2 0.7 N | 10 2.6 N | 7 331 51 0.1 0.3 61.1 3.7
5/6/21 - 0640 56.2 55.5 89 52.7 0.00 5.39 75.2 30.6 1,018.1 0.4 N | 11 2.3 NNE | 19 334 46 0.0 0.2 60.1 3.7
5/6/21 - 0630 55.8 55.3 90 52.6 0.00 5.39 75.2 30.6 1,018.0 1.1 ENE | 57 3.2 NNE | 19 338 43 0.1 0.2 59.0 3.7
5/6/21 - 0620 55.5 55.0 90 52.4 0.00 5.39 75.2 30.6 1,017.9 0.7 E | 90 2.0 E | 84 338 35 0.2 0.2 58.0 3.7
5/6/21 - 0610 55.2 55.0 90 52.3 0.00 5.39 75.2 30.7 1,017.7 1.1 NE | 41 3.6 NNE | 28 336 31 0.1 0.2 56.7 3.7
5/6/21 - 0600 55.1 54.6 91 52.1 0.00 5.39 75.3 30.6 1,017.5 1.0 NE | 40 2.0 NE | 40 334 29 0.0 0.2 54.2 3.7
5/6/21 - 0550 54.6 54.0 91 51.7 0.00 5.39 75.3 30.7 1,017.3 1.0 NE | 38 2.9 NNE | 31 344 23 0.0 0.2 50.4 3.7
5/6/21 - 0540 54.1 53.1 91 51.0 0.00 5.39 75.3 30.7 1,017.2 0.9 NE | 43 2.3 NNE | 16 351 10 0.0 0.2 46.8 3.7
5/6/21 - 0530 53.4 52.8 90 50.4 0.00 5.39 75.4 30.7 1,016.9 0.0 ESE | 117 0.5 SE | 136 351 -0 0.0 0.2 45.1 3.7
5/6/21 - 0520 53.0 52.6 90 50.1 0.00 5.39 75.4 30.7 1,016.8 0.0 N | 0 0.0 S | 174 349 -7 0.0 0.2 44.4 3.7
5/6/21 - 0510 52.8 52.6 90 50.0 0.00 5.39 75.4 30.7 1,016.7 0.0 N | 0 0.0 S | 178 347 -13 0.0 0.2 44.1 3.7
5/6/21 - 0500 52.8 52.4 90 49.8 0.00 5.39 75.5 30.7 1,016.6 0.0 S | 190 0.5 S | 188 344 -16 0.0 0.2 43.9 3.7
5/6/21 - 0450 52.8 52.5 90 49.9 0.00 5.39 75.0 30.7 1,016.4 0.1 SSE | 152 0.8 SSE | 150 342 -19 0.0 0.2 43.5 3.7
5/6/21 - 0440 52.9 52.5 90 49.8 0.00 5.39 74.9 30.7 1,016.2 0.0 SSE | 154 0.6 SSE | 154 336 -20 0.0 0.2 43.6 3.7
5/6/21 - 0430 53.1 52.8 90 50.1 0.00 5.39 75.0 30.7 1,016.2 0.1 SSE | 153 0.5 SSE | 153 333 -20 0.0 0.2 43.8 3.7
5/6/21 - 0420 53.4 52.8 90 50.1 0.00 5.39 75.0 30.7 1,016.1 0.3 S | 190 0.8 S | 190 329 -21 0.0 0.2 43.9 3.7
5/6/21 - 0410 53.4 52.9 90 50.3 0.00 5.39 75.1 30.7 1,016.1 0.0 S | 183 0.6 S | 183 327 -21 0.0 0.2 43.9 3.7
5/6/21 - 0400 53.1 52.7 89 49.8 0.00 5.39 75.2 30.7 1,016.0 0.0 SSE | 149 0.3 SSE | 147 324 -22 0.0 0.2 44.0 3.7
5/6/21 - 0350 53.3 52.8 89 49.9 0.00 5.39 76.0 30.8 1,016.0 0.1 SSE | 156 0.7 SSE | 156 320 -22 0.0 0.2 44.9 3.7
5/6/21 - 0340 54.1 53.0 89 50.3 0.00 5.39 76.4 30.8 1,016.0 0.0 SSE | 148 0.6 SSE | 151 318 -23 0.0 0.2 45.4 3.7
5/6/21 - 0330 54.2 53.7 89 51.0 0.00 5.39 76.4 30.8 1,015.9 0.2 S | 170 0.9 S | 170 313 -23 0.0 0.2 45.4 3.7
5/6/21 - 0320 54.2 53.6 89 50.8 0.00 5.39 76.5 30.8 1,015.9 0.1 S | 181 0.8 S | 189 309 -24 0.0 0.2 45.6 3.7
5/6/21 - 0310 54.2 53.7 89 50.8 0.00 5.39 76.6 30.8 1,015.9 0.0 SSE | 156 0.5 SSE | 156 305 -25 0.0 0.2 45.8 3.7
5/6/21 - 0300 54.3 54.0 89 51.0 0.00 5.39 76.6 30.8 1,015.9 0.0 SSE | 153 0.8 SSE | 147 300 -26 0.0 0.2 46.2 3.7
5/6/21 - 0250 54.5 54.0 89 51.2 0.00 5.39 76.6 30.8 1,015.9 0.2 SSE | 155 0.6 SSE | 155 294 -27 0.0 0.2 46.4 3.7
5/6/21 - 0240 54.2 54.0 89 51.0 0.00 5.39 76.6 30.8 1,015.9 0.4 S | 175 1.1 S | 177 288 -27 0.0 0.2 46.9 3.7
5/6/21 - 0230 54.2 54.0 89 51.0 0.00 5.39 76.6 30.8 1,016.0 0.5 S | 170 1.4 SSE | 154 283 -29 0.0 0.2 47.1 3.7
5/6/21 - 0220 54.2 53.7 89 50.8 0.00 5.39 76.5 30.9 1,016.0 0.6 SSE | 168 1.2 SE | 146 277 -31 0.2 0.2 47.0 3.7
5/6/21 - 0210 54.8 53.9 88 51.0 0.00 5.39 76.6 30.9 1,016.1 0.5 S | 177 1.3 S | 176 274 -31 0.0 0.1 47.3 3.7
5/6/21 - 0200 55.2 54.6 88 51.5 0.00 5.39 76.6 30.9 1,016.2 0.5 S | 188 1.2 SSW | 200 271 -33 0.0 0.1 47.9 3.7
5/6/21 - 0150 55.2 54.7 88 51.3 0.00 5.39 76.6 30.8 1,016.3 1.2 SSW | 197 1.8 SSW | 199 268 -36 0.5 0.1 48.2 3.7
5/6/21 - 0140 55.3 54.7 87 51.2 0.00 5.39 76.6 30.8 1,016.5 1.0 SSW | 192 1.5 SSW | 196 264 -41 0.0 0.0 48.7 3.7
5/6/21 - 0130 55.6 55.1 86 51.2 0.00 5.39 76.7 30.8 1,016.6 0.4 SSW | 195 1.4 SSW | 197 261 -46 0.0 0.0 49.1 3.7
5/6/21 - 0120 55.9 55.5 85 51.2 0.00 5.39 76.6 30.9 1,016.6 0.0 N | 0 0.0 SE | 139 259 -52 0.0 0.0 49.8 3.7
5/6/21 - 0110 56.3 55.5 84 51.4 0.00 5.39 76.7 30.9 1,016.7 0.2 SE | 129 0.9 ESE | 107 256 -56 0.0 0.0 50.5 3.7
5/6/21 - 0100 56.4 56.0 84 51.5 0.00 5.39 76.7 30.9 1,016.8 0.7 ESE | 111 2.1 ENE | 72 254 -59 0.0 0.0 50.8 3.7
5/6/21 - 0050 56.6 56.0 83 51.2 0.00 5.39 76.7 30.9 1,016.9 0.1 SE | 128 1.0 SE | 131 254 -62 0.0 0.0 51.2 3.7
5/6/21 - 0040 56.8 56.3 82 51.2 0.00 5.39 76.7 30.9 1,017.0 0.1 ESE | 116 0.7 SE | 132 255 -64 0.0 0.0 51.9 3.7
5/6/21 - 0030 57.4 56.8 82 51.5 0.00 5.39 76.7 30.9 1,017.1 0.2 ESE | 115 1.3 E | 80 265 -66 0.0 0.0 53.0 3.7
5/6/21 - 0020 57.7 57.3 81 51.8 0.00 5.39 76.7 30.9 1,017.1 0.4 ENE | 73 1.6 E | 85 271 -66 0.1 0.0 53.6 3.7
5/6/21 - 0010 58.0 57.6 81 51.9 0.00 5.39 76.6 30.9 1,017.2 0.5 ENE | 67 1.7 NE | 55 271 -68 0.0 0.0 54.1 3.7
5/6/21 - 0000 58.3 57.8 80 52.0 0.00 5.39 76.7 30.9 1,017.3 0.9 ENE | 66 2.7 NNE | 21 272 -68 0.1 16.3 54.0 3.7
5/5/21 - 2350 58.3 58.0 80 52.0 0.00 5.39 76.7 30.9 1,017.3 1.0 NE | 49 2.3 NE | 42 272 -68 0.0 16.3 53.7 3.7
5/5/21 - 2340 58.3 58.0 80 52.0 0.00 5.39 76.6 30.9 1,017.3 0.8 ENE | 61 1.6 NE | 40 272 -68 0.0 16.3 53.7 3.7
5/5/21 - 2330 58.4 58.0 79 51.8 0.00 5.39 76.6 30.9 1,017.3 0.6 E | 82 3.0 NE | 54 272 -68 0.1 16.3 53.5 3.7
5/5/21 - 2320 59.0 58.3 78 51.8 0.00 5.39 76.6 30.9 1,017.2 0.5 E | 88 2.2 ENE | 63 272 -69 0.1 16.3 54.0 3.7
5/5/21 - 2310 59.2 58.9 78 52.1 0.00 5.39 76.6 30.9 1,017.2 1.0 NE | 51 2.7 NE | 53 271 -70 0.0 16.2 54.2 3.7
5/5/21 - 2300 59.3 59.1 77 52.1 0.00 5.39 76.6 30.9 1,017.2 0.8 ENE | 62 2.0 ENE | 61 271 -71 0.2 16.2 53.7 3.7
5/5/21 - 2250 59.3 58.6 77 51.8 0.00 5.39 76.7 30.9 1,017.2 0.7 ENE | 62 2.2 E | 85 271 -69 0.2 16.2 52.2 3.7
5/5/21 - 2240 59.3 58.6 76 51.3 0.00 5.39 76.7 30.9 1,017.1 0.1 SE | 130 0.8 SE | 143 271 -70 0.0 16.2 52.4 3.7
5/5/21 - 2230 59.6 59.1 74 51.1 0.00 5.39 76.6 30.9 1,017.1 0.0 E | 80 0.5 NE | 52 271 -70 0.0 16.2 53.3 3.7
5/5/21 - 2220 60.2 59.4 72 50.8 0.00 5.39 76.6 30.9 1,017.0 0.1 ESE | 112 0.7 SE | 131 271 -71 0.0 16.2 54.3 3.7
5/5/21 - 2210 61.0 60.2 71 51.3 0.00 5.39 76.6 31.0 1,016.9 0.2 NE | 55 1.1 NE | 54 270 -73 0.0 16.2 55.5 3.7
5/5/21 - 2200 61.2 60.8 72 51.8 0.00 5.39 76.5 31.0 1,016.8 0.7 ENE | 71 2.1 ESE | 106 269 -74 0.0 16.2 56.5 3.7
5/5/21 - 2150 61.5 61.0 72 52.0 0.00 5.39 76.4 31.0 1,016.8 0.9 ESE | 109 2.0 E | 82 269 -74 0.1 16.2 56.8 3.7
5/5/21 - 2140 61.9 61.3 71 52.0 0.00 5.39 76.5 31.0 1,016.8 0.7 ESE | 113 2.3 E | 88 269 -75 0.1 16.2 57.6 3.7
5/5/21 - 2130 62.3 61.8 70 52.0 0.00 5.39 76.5 31.0 1,016.7 1.0 E | 101 2.8 ENE | 67 268 -75 0.4 16.1 58.0 3.7
5/5/21 - 2120 62.9 62.2 68 51.8 0.00 5.39 76.4 31.0 1,016.7 1.1 ESE | 109 3.1 ENE | 65 268 -76 0.3 16.1 58.4 3.7
5/5/21 - 2110 63.2 62.8 67 52.0 0.00 5.39 76.4 31.0 1,016.5 0.8 ENE | 63 2.2 SE | 134 268 -76 0.1 16.0 59.1 3.7
5/5/21 - 2100 63.5 62.8 67 52.0 0.00 5.39 76.4 30.9 1,016.5 0.9 E | 82 2.2 SE | 126 268 -77 0.2 16.0 59.9 3.7
5/5/21 - 2050 64.3 63.3 65 51.9 0.00 5.39 76.4 30.9 1,016.4 1.0 E | 96 2.4 NE | 44 268 -78 0.4 16.0 60.9 3.7
5/5/21 - 2040 64.5 64.2 64 52.1 0.00 5.39 76.3 30.9 1,016.3 1.7 NE | 41 3.3 NE | 46 268 -79 0.2 15.9 61.5 3.7
5/5/21 - 2030 65.2 64.3 64 52.1 0.00 5.39 76.4 31.0 1,016.1 1.0 ENE | 62 2.3 ENE | 71 268 -79 0.4 15.9 62.2 3.7
5/5/21 - 2020 65.6 64.9 63 52.4 0.00 5.39 76.3 30.9 1,015.9 1.4 NE | 46 2.9 ESE | 105 267 -80 0.4 15.8 62.9 3.7
5/5/21 - 2010 66.4 65.5 62 52.5 0.00 5.39 76.4 31.0 1,015.7 1.4 ENE | 61 2.6 NE | 42 267 -81 0.4 15.8 63.6 3.7
5/5/21 - 2000 67.2 66.4 60 52.7 0.00 5.39 76.3 30.9 1,015.5 1.7 NE | 49 3.2 N | 9 267 -83 0.3 15.7 64.7 3.7
5/5/21 - 1950 68.3 67.2 59 52.7 0.00 5.39 76.2 30.9 1,015.4 1.5 NE | 50 3.0 N | 11 267 -84 0.3 15.7 65.9 3.7
5/5/21 - 1940 69.9 68.2 56 52.9 0.00 5.39 76.2 30.9 1,015.2 1.7 NE | 38 3.4 NNE | 32 266 -86 0.3 15.6 67.0 3.7
5/5/21 - 1930 70.8 69.7 54 53.0 0.00 5.39 76.1 30.9 1,015.0 2.1 NE | 38 3.7 ENE | 77 266 -87 0.3 15.6 68.3 3.8
5/5/21 - 1920 72.4 70.8 52 53.3 0.00 5.39 76.1 30.9 1,014.8 2.2 NE | 39 3.6 ENE | 57 266 -88 0.3 15.5 69.4 3.8
5/5/21 - 1910 73.5 72.4 50 53.5 0.00 5.39 76.0 30.9 1,014.6 1.6 NE | 37 3.3 NE | 50 266 -89 0.3 15.4 70.5 3.8
5/5/21 - 1900 74.8 73.5 48 53.3 0.00 5.39 76.0 30.9 1,014.4 1.3 NE | 39 2.3 NE | 37 266 -90 0.3 15.4 71.8 3.8
5/5/21 - 1850 76.3 74.6 46 53.5 0.00 5.39 75.9 30.9 1,014.3 1.3 NE | 51 2.9 NE | 47 266 -90 0.4 15.4 73.7 3.8
5/5/21 - 1840 77.5 76.1 45 54.1 0.00 5.39 75.8 30.9 1,014.2 0.9 NE | 53 2.2 NE | 38 265 -88 0.3 15.3 75.8 3.8
5/5/21 - 1830 80.0 77.5 42 53.9 0.00 5.39 75.9 30.9 1,014.0 1.6 NE | 39 3.4 NE | 36 264 -85 0.3 15.2 78.0 3.8
5/5/21 - 1820 83.1 80.1 36 52.1 0.00 5.39 75.5 30.8 1,013.8 1.4 NE | 52 2.4 NE | 51 264 -81 0.3 15.2 79.3 3.8
5/5/21 - 1810 84.2 83.1 19 36.5 0.00 5.39 75.3 30.8 1,013.7 0.7 NNE | 22 2.0 N | 4 263 -64 0.1 15.1 80.4 3.8
5/5/21 - 1800 85.6 84.1 17 35.0 0.00 5.39 75.1 30.8 1,013.6 1.0 NNW | 339 4.1 NW | 306 263 -48 0.6 15.1 81.7 3.8
5/5/21 - 1750 86.0 85.5 16 33.8 0.00 5.39 75.1 30.8 1,013.5 0.4 NW | 316 3.0 WSW | 255 262 -28 0.6 15.0 83.0 3.8
5/5/21 - 1740 86.5 85.8 14 31.8 0.00 5.39 75.0 30.8 1,013.4 1.6 WNW | 296 5.7 SW | 217 262 -3 1.0 14.9 83.9 3.8
5/5/21 - 1730 86.4 85.7 14 30.7 0.00 5.39 75.1 30.8 1,013.4 3.6 SW | 236 7.1 SW | 215 262 14 2.6 14.8 84.9 3.8
5/5/21 - 1720 86.0 85.5 15 32.7 0.00 5.39 75.4 30.8 1,013.3 4.7 SW | 227 6.9 WSW | 251 262 10 3.3 14.3 86.9 3.8
5/5/21 - 1710 87.0 85.8 16 34.9 0.00 5.39 75.6 30.8 1,013.3 5.6 SW | 229 8.9 WSW | 244 262 32 3.8 13.8 89.6 3.8
5/5/21 - 1700 88.2 87.0 16 36.4 0.00 5.39 75.4 30.7 1,013.2 5.2 WSW | 240 9.3 WSW | 247 262 109 3.9 13.2 91.2 3.8
5/5/21 - 1650 88.5 88.1 17 38.1 0.00 5.39 75.5 30.7 1,013.2 5.2 WSW | 255 10.1 SW | 222 262 138 3.8 12.5 92.0 3.8
5/5/21 - 1640 89.3 88.1 17 38.6 0.00 5.39 75.4 30.7 1,013.1 4.7 WSW | 242 8.1 WSW | 246 262 153 3.5 11.9 92.6 3.8
5/5/21 - 1630 90.1 88.8 17 38.9 0.00 5.39 75.3 30.7 1,013.0 4.5 WSW | 244 8.8 WSW | 255 262 194 3.0 11.3 92.3 3.8
5/5/21 - 1620 89.9 88.1 17 38.3 0.00 5.39 75.2 30.7 1,013.0 2.6 W | 262 8.3 SW | 229 262 167 2.1 10.8 91.8 3.8
5/5/21 - 1610 88.9 88.2 19 40.5 0.00 5.39 75.1 30.7 1,013.1 4.2 SW | 230 7.3 WNW | 298 263 79 2.8 10.5 93.3 3.8
5/5/21 - 1600 90.4 88.7 18 39.9 0.00 5.39 74.9 30.7 1,013.1 4.3 WSW | 258 8.7 WSW | 257 262 96 3.2 10.0 95.7 3.8
5/5/21 - 1550 91.2 89.7 18 41.2 0.00 5.39 74.8 30.6 1,013.1 4.4 SW | 234 9.2 W | 264 263 206 3.3 9.5 97.6 3.8
5/5/21 - 1540 92.6 91.2 16 38.7 0.00 5.39 74.8 30.6 1,013.0 3.1 WNW | 287 9.9 W | 272 262 270 2.5 8.9 99.2 3.8
5/5/21 - 1530 93.7 92.6 15 38.5 0.00 5.39 74.6 30.6 1,013.0 2.4 NW | 307 5.9 W | 267 262 343 1.9 8.5 99.7 3.8
5/5/21 - 1520 94.2 93.3 16 40.0 0.00 5.39 74.7 30.6 1,013.0 1.9 NW | 306 5.1 W | 276 262 364 1.8 8.2 100.5 3.8
5/5/21 - 1510 93.7 92.4 16 39.7 0.00 5.39 74.7 30.6 1,013.0 2.3 NW | 308 5.1 N | 11 262 384 2.0 7.9 100.5 3.8
5/5/21 - 1500 93.9 93.0 16 41.1 0.00 5.39 74.5 30.6 1,013.1 2.0 NW | 313 5.1 NW | 313 263 400 2.0 7.6 101.3 3.8
5/5/21 - 1450 94.2 93.5 17 41.9 0.00 5.39 74.5 30.6 1,013.1 2.1 NW | 312 4.6 WNW | 301 263 416 2.1 7.2 102.2 3.8
5/5/21 - 1440 94.3 93.3 18 43.6 0.00 5.39 74.4 30.5 1,013.2 2.3 WNW | 291 7.7 WNW | 298 263 425 2.3 6.9 103.7 3.8
5/5/21 - 1430 94.3 93.0 19 45.2 0.00 5.39 74.2 30.6 1,013.3 1.9 NNW | 335 5.5 W | 273 263 441 1.8 6.5 105.0 3.8
5/5/21 - 1420 94.3 92.8 19 45.1 0.00 5.39 74.2 30.5 1,013.3 1.9 N | 6 5.7 NNE | 24 263 453 1.2 6.2 106.2 3.8
5/5/21 - 1410 94.6 93.8 18 45.0 0.00 5.39 74.1 30.5 1,013.4 1.3 N | 354 3.9 W | 267 263 465 0.7 6.0 107.3 3.8
5/5/21 - 1400 94.1 92.5 19 45.3 0.00 5.39 74.1 30.5 1,013.4 2.1 NNE | 32 4.0 NE | 45 263 477 0.8 5.9 107.5 3.8
5/5/21 - 1350 94.3 93.0 19 45.4 0.00 5.39 73.8 30.5 1,013.4 1.9 NE | 43 3.9 ENE | 58 263 490 0.9 5.8 108.4 3.8
5/5/21 - 1340 93.2 91.9 20 45.8 0.00 5.39 73.8 30.5 1,013.4 2.3 NE | 47 4.6 NNE | 29 263 509 1.2 5.6 107.8 3.8
5/5/21 - 1330 93.0 92.2 21 46.6 0.00 5.39 73.7 30.5 1,013.5 2.8 NE | 54 4.9 SE | 132 263 516 1.1 5.4 108.9 3.8
5/5/21 - 1320 92.4 91.5 21 46.8 0.00 5.39 73.6 30.5 1,013.6 3.0 ENE | 59 5.7 NE | 52 263 533 1.1 5.2 108.6 3.8
5/5/21 - 1310 91.8 89.8 23 47.4 0.00 5.39 73.5 30.5 1,013.6 2.9 E | 80 6.9 E | 91 263 544 1.6 5.1 110.0 3.8
5/5/21 - 1300 91.3 89.7 23 47.2 0.00 5.39 73.4 30.5 1,013.8 3.4 ENE | 72 7.0 ENE | 77 264 555 1.4 4.8 116.4 3.8
5/5/21 - 1250 91.7 90.8 22 47.7 0.00 5.39 73.4 30.4 1,013.8 3.1 NE | 48 5.1 ENE | 67 263 555 0.9 4.6 120.2 3.8
5/5/21 - 1240 92.0 90.2 22 47.2 0.00 5.39 73.2 30.4 1,013.8 2.5 E | 80 6.6 E | 87 263 571 1.3 4.4 122.2 3.8
5/5/21 - 1230 91.0 89.8 22 46.5 0.00 5.39 73.3 30.4 1,013.8 2.2 ENE | 69 5.1 NE | 43 263 577 1.0 4.2 125.3 3.8
5/5/21 - 1220 92.0 90.8 21 46.6 0.00 5.39 73.2 30.4 1,013.9 1.9 E | 91 5.4 SSE | 154 263 580 1.2 4.0 126.5 3.8
5/5/21 - 1210 90.8 89.7 22 46.4 0.00 5.39 73.1 30.4 1,014.0 2.2 N | 8 4.2 W | 280 263 583 2.0 3.8 127.1 3.8
5/5/21 - 1200 90.5 89.2 23 46.9 0.00 5.39 73.2 30.4 1,014.1 2.2 NE | 34 5.0 NNE | 26 263 583 1.0 3.5 130.4 3.8
5/5/21 - 1150 89.7 87.2 24 46.8 0.00 5.39 72.9 30.4 1,014.2 1.8 W | 277 5.9 SSW | 192 263 587 1.3 3.3 130.5 3.8
5/5/21 - 1140 89.8 87.9 24 47.7 0.00 5.39 72.4 30.4 1,014.3 1.6 N | 1 3.9 NE | 36 263 586 0.9 3.1 130.3 3.8
5/5/21 - 1130 88.8 87.8 25 48.0 0.00 5.39 72.5 30.4 1,014.4 1.6 N | 357 4.4 N | 6 263 585 0.8 2.9 131.7 3.8
5/5/21 - 1120 90.0 88.3 25 48.6 0.00 5.39 72.6 30.4 1,014.5 1.6 N | 6 4.2 NE | 38 263 580 1.0 2.8 132.5 3.8
5/5/21 - 1110 88.4 86.7 26 48.7 0.00 5.39 72.6 30.4 1,014.5 1.4 NE | 52 4.8 SE | 142 263 580 1.0 2.6 131.4 3.8
5/5/21 - 1100 87.0 85.6 28 49.0 0.00 5.39 72.7 30.4 1,014.7 1.5 NW | 324 4.2 W | 264 263 573 1.3 2.5 127.8 3.8
5/5/21 - 1050 86.7 85.3 28 49.5 0.00 5.39 72.5 30.4 1,014.7 1.7 NNW | 333 4.9 W | 267 262 565 1.5 2.2 124.8 3.8
5/5/21 - 1040 86.8 86.0 29 50.0 0.00 5.39 72.6 30.4 1,014.8 2.0 NNE | 33 4.5 NE | 52 263 557 0.8 2.0 123.5 3.8
5/5/21 - 1030 86.1 84.4 29 49.6 0.00 5.39 72.6 30.4 1,014.9 1.2 NNE | 15 4.7 N | 10 263 550 0.8 1.9 118.2 3.8
5/5/21 - 1020 85.1 83.8 30 49.8 0.00 5.39 72.7 30.4 1,014.9 1.2 NNE | 19 3.2 NNE | 13 263 541 0.7 1.7 114.5 3.7
5/5/21 - 1010 83.7 82.0 32 50.0 0.00 5.39 72.6 30.4 1,015.0 1.3 NNE | 16 3.4 NNE | 17 263 533 0.7 1.6 111.4 3.7
5/5/21 - 1000 82.7 82.0 33 50.2 0.00 5.39 72.7 30.4 1,015.0 1.5 NNE | 28 3.9 SE | 145 263 520 0.9 1.5 109.7 3.7
5/5/21 - 0950 82.0 81.2 34 50.8 0.00 5.39 72.6 30.4 1,015.0 1.5 NE | 38 3.1 NE | 35 264 508 0.6 1.3 110.1 3.7
5/5/21 - 0940 82.0 80.5 35 50.7 0.00 5.39 72.7 30.4 1,015.0 1.4 NNE | 28 4.1 N | 11 263 496 0.5 1.2 110.5 3.7
5/5/21 - 0930 81.2 80.1 35 50.3 0.00 5.39 72.8 30.4 1,015.1 1.1 N | 358 3.9 NNE | 14 264 483 1.1 1.2 110.4 3.8
5/5/21 - 0920 80.9 79.2 36 50.6 0.00 5.39 72.9 30.5 1,015.1 0.9 ENE | 60 3.6 ESE | 105 263 466 0.7 1.0 110.6 3.8
5/5/21 - 0910 79.2 77.5 37 50.2 0.00 5.39 72.9 30.5 1,015.1 0.7 NNE | 33 3.2 NE | 45 264 449 0.6 0.9 109.6 3.8
5/5/21 - 0900 77.5 76.9 39 50.3 0.00 5.39 73.0 30.5 1,015.0 1.4 NE | 37 3.6 N | 0 264 433 0.6 0.8 107.4 3.8
5/5/21 - 0850 77.0 74.4 40 49.6 0.00 5.39 73.0 30.5 1,015.0 0.8 NNW | 332 2.6 NE | 35 264 414 0.5 0.7 105.3 3.7
5/5/21 - 0840 75.0 73.7 42 49.7 0.00 5.39 73.1 30.5 1,015.0 1.2 N | 3 3.4 N | 352 264 396 0.6 0.6 104.3 3.7
5/5/21 - 0830 74.1 73.3 43 49.7 0.00 5.39 73.2 30.5 1,015.0 1.4 ENE | 61 3.8 N | 354 264 376 0.5 0.5 102.3 3.7
5/5/21 - 0820 73.3 72.1 42 48.2 0.00 5.39 73.2